createdAt,value
2018-09-03T00:00:30.501Z,81.89
2018-09-03T00:05:34.047Z,81.42
2018-09-03T00:10:37.876Z,81.61
2018-09-03T00:15:41.386Z,81.34
2018-09-03T00:20:45.145Z,81.73
2018-09-03T00:25:48.645Z,81.30
2018-09-03T00:30:54.721Z,81.48
2018-09-03T00:36:03.549Z,81.55
2018-09-03T00:41:12.161Z,81.12
2018-09-03T00:46:20.816Z,81.61
2018-09-03T00:51:24.338Z,81.40
2018-09-03T00:56:27.881Z,80.94
2018-09-03T01:01:31.443Z,81.62
2018-09-03T01:06:35.049Z,81.59
2018-09-03T01:11:38.550Z,80.81
2018-09-03T01:16:42.067Z,80.88
2018-09-03T01:21:45.569Z,80.85
2018-09-03T01:26:49.030Z,80.81
2018-09-03T01:31:56.182Z,81.09
2018-09-03T01:36:59.734Z,81.14
2018-09-03T01:42:04.296Z,81.17
2018-09-03T01:47:07.935Z,81.53
2018-09-03T01:52:11.441Z,81.63
2018-09-03T01:57:14.975Z,81.35
2018-09-03T02:02:18.505Z,81.27
2018-09-03T02:07:22.041Z,81.81
2018-09-03T02:12:25.601Z,81.87
2018-09-03T02:17:29.175Z,81.36
2018-09-03T02:22:32.751Z,81.66
2018-09-03T02:27:36.306Z,82.30
2018-09-03T02:32:40.256Z,82.12
2018-09-03T02:37:43.709Z,82.39
2018-09-03T02:42:47.350Z,82.21
2018-09-03T02:47:50.924Z,82.32
2018-09-03T02:52:54.485Z,82.22
2018-09-03T02:57:57.981Z,82.18
2018-09-03T03:03:01.454Z,81.95
2018-09-03T03:08:05.870Z,82.13
2018-09-03T03:13:09.427Z,82.14
2018-09-03T03:18:12.918Z,81.34
2018-09-03T03:23:16.440Z,81.79
2018-09-03T03:28:19.901Z,82.00
2018-09-03T03:33:23.365Z,82.07
2018-09-03T03:38:26.910Z,82.10
2018-09-03T03:43:30.506Z,81.79
2018-09-03T03:48:34.025Z,82.51
2018-09-03T03:53:37.564Z,82.38
2018-09-03T03:58:41.061Z,82.32
2018-09-03T04:03:44.786Z,82.55
2018-09-03T04:08:48.289Z,82.47
2018-09-03T04:13:51.849Z,82.39
2018-09-03T04:18:55.416Z,82.64
2018-09-03T04:23:58.934Z,82.47
2018-09-03T04:29:02.610Z,82.93
2018-09-03T04:34:06.136Z,83.02
2018-09-03T04:39:10.240Z,82.74
2018-09-03T04:44:13.806Z,82.19
2018-09-03T04:49:17.294Z,82.41
2018-09-03T04:54:20.847Z,82.95
2018-09-03T04:59:24.405Z,82.85
2018-09-03T05:04:34.533Z,82.63
2018-09-03T05:09:38.027Z,82.67
2018-09-03T05:14:41.664Z,82.82
2018-09-03T05:19:45.222Z,83.22
2018-09-03T05:24:48.738Z,83.29
2018-09-03T05:29:52.243Z,83.69
2018-09-03T05:34:55.726Z,83.40
2018-09-03T05:39:59.327Z,83.55
2018-09-03T05:45:03.103Z,82.99
2018-09-03T05:50:06.814Z,83.22
2018-09-03T05:55:10.289Z,83.17
2018-09-03T06:00:13.870Z,83.44
2018-09-03T06:05:17.343Z,84.18
2018-09-03T06:10:20.849Z,84.07
2018-09-03T06:15:24.460Z,84.33
2018-09-03T06:20:27.976Z,83.84
2018-09-03T06:25:31.549Z,83.93
2018-09-03T06:30:35.068Z,83.88
2018-09-03T06:35:38.618Z,83.87
2018-09-03T06:40:42.206Z,84.05
2018-09-03T06:45:45.824Z,83.51
2018-09-03T06:50:49.299Z,83.12
2018-09-03T06:55:52.831Z,83.75
2018-09-03T07:00:56.434Z,83.90
2018-09-03T07:05:59.922Z,84.53
2018-09-03T07:11:03.418Z,84.51
2018-09-03T07:16:06.976Z,85.22
2018-09-03T07:21:10.483Z,84.92
2018-09-03T07:26:14.005Z,83.99
2018-09-03T07:31:17.577Z,84.11
2018-09-03T07:36:21.083Z,83.45
2018-09-03T07:41:24.921Z,83.10
2018-09-03T07:46:28.418Z,83.29
2018-09-03T07:51:32.330Z,82.88
2018-09-03T07:56:35.902Z,83.13
2018-09-03T08:01:39.358Z,83.43
2018-09-03T08:06:42.882Z,83.30
2018-09-03T08:11:46.398Z,83.00
2018-09-03T08:16:49.845Z,82.50
2018-09-03T08:21:53.400Z,80.94
2018-09-03T08:26:56.909Z,79.81
2018-09-03T08:32:00.553Z,78.41
2018-09-03T08:37:04.040Z,76.57
2018-09-03T08:42:07.642Z,76.11
2018-09-03T08:47:11.173Z,76.24
2018-09-03T08:52:14.693Z,74.88
2018-09-03T08:57:18.408Z,73.90
2018-09-03T09:02:22.257Z,73.01
2018-09-03T09:07:25.765Z,74.44
2018-09-03T09:12:29.266Z,74.88
2018-09-03T09:17:32.887Z,74.43
2018-09-03T09:22:36.453Z,73.96
2018-09-03T09:27:39.958Z,71.86
2018-09-03T09:32:43.405Z,71.24
2018-09-03T09:37:46.891Z,71.42
2018-09-03T09:42:50.477Z,70.76
2018-09-03T09:47:54.025Z,70.45
2018-09-03T09:52:57.538Z,70.30
2018-09-03T09:58:01.026Z,70.01
2018-09-03T10:03:04.523Z,67.32
2018-09-03T10:08:08.026Z,68.22
2018-09-03T10:13:11.499Z,67.02
2018-09-03T10:18:15.032Z,66.85
2018-09-03T10:23:18.526Z,66.85
2018-09-03T10:28:22.023Z,66.24
2018-09-03T10:33:25.472Z,66.75
2018-09-03T10:38:29.026Z,66.12
2018-09-03T10:43:32.567Z,65.63
2018-09-03T10:48:36.121Z,64.93
2018-09-03T10:53:39.726Z,64.05
2018-09-03T10:58:43.247Z,62.19
2018-09-03T11:03:46.758Z,62.56
2018-09-03T11:08:50.326Z,61.16
2018-09-03T11:13:53.855Z,63.43
2018-09-03T11:18:57.373Z,64.90
2018-09-03T11:24:01.286Z,62.57
2018-09-03T11:29:04.813Z,61.62
2018-09-03T11:34:08.297Z,59.55
2018-09-03T11:39:12.952Z,55.19
2018-09-03T11:44:16.446Z,60.77
2018-09-03T11:49:19.979Z,63.56
2018-09-03T11:54:23.577Z,66.27
2018-09-03T11:59:27.074Z,64.03
2018-09-03T12:04:30.553Z,63.87
2018-09-03T12:09:34.036Z,63.29
2018-09-03T12:14:40.963Z,60.21
2018-09-03T12:19:44.424Z,59.97
2018-09-03T12:24:47.965Z,63.66
2018-09-03T12:29:51.477Z,63.71
2018-09-03T12:34:54.954Z,64.53
2018-09-03T12:39:58.485Z,64.22
2018-09-03T12:45:02.311Z,64.36
2018-09-03T12:50:06.227Z,63.25
2018-09-03T12:55:09.746Z,64.64
2018-09-03T13:00:17.349Z,64.31
2018-09-03T13:05:21.169Z,64.27
2018-09-03T13:10:24.725Z,66.16
2018-09-03T13:15:28.245Z,64.36
2018-09-03T13:20:31.835Z,64.47
2018-09-03T13:25:35.329Z,66.31
2018-09-03T13:30:38.995Z,65.85
2018-09-03T13:35:42.552Z,65.27
2018-09-03T13:40:46.108Z,65.30
2018-09-03T13:45:49.666Z,65.82
2018-09-03T13:50:53.438Z,65.24
2018-09-03T13:55:57.011Z,66.50
2018-09-03T14:01:00.572Z,66.61
2018-09-03T14:06:04.274Z,66.41
2018-09-03T14:11:07.730Z,70.32
2018-09-03T14:16:11.375Z,69.48
2018-09-03T14:21:14.933Z,67.01
2018-09-03T14:26:18.461Z,67.99
2018-09-03T14:31:22.387Z,70.42
2018-09-03T14:36:26.132Z,73.79
2018-09-03T14:41:29.623Z,74.24
2018-09-03T14:46:34.782Z,74.45
2018-09-03T14:51:38.249Z,72.38
2018-09-03T14:56:41.869Z,71.49
2018-09-03T15:01:45.362Z,69.05
2018-09-03T15:06:48.928Z,68.15
2018-09-03T15:11:52.472Z,71.72
2018-09-03T15:16:55.953Z,70.50
2018-09-03T15:21:59.484Z,67.77
2018-09-03T15:27:03.064Z,66.47
2018-09-03T15:32:06.615Z,68.62
2018-09-03T15:42:47.643Z,67.72
2018-09-03T15:47:51.262Z,62.99
2018-09-03T15:52:54.772Z,61.46
2018-09-03T15:57:58.255Z,63.58
2018-09-03T16:03:01.827Z,61.30
2018-09-03T16:08:05.406Z,62.79
2018-09-03T16:13:09.038Z,66.95
2018-09-03T16:18:12.549Z,65.59
2018-09-03T16:23:16.063Z,64.54
2018-09-03T16:28:19.649Z,65.72
2018-09-03T16:33:29.754Z,68.79
2018-09-03T16:38:33.564Z,68.64
2018-09-03T16:43:37.226Z,71.06
2018-09-03T16:48:40.713Z,71.52
2018-09-03T16:53:44.234Z,72.70
2018-09-03T16:58:47.697Z,70.04
2018-09-03T17:03:52.249Z,72.86
2018-09-03T17:08:56.084Z,73.92
2018-09-03T17:13:59.670Z,72.88
2018-09-03T17:19:03.230Z,73.90
2018-09-03T17:24:06.980Z,74.33
2018-09-03T17:29:11.613Z,74.16
2018-09-03T17:34:15.126Z,73.59
2018-09-03T17:39:18.637Z,75.78
2018-09-03T17:44:22.512Z,75.10
2018-09-03T17:49:27.292Z,75.05
2018-09-03T17:54:31.995Z,74.70
2018-09-03T17:59:36.560Z,75.49
2018-09-03T18:04:40.082Z,75.04
2018-09-03T18:09:44.926Z,74.51
2018-09-03T18:14:49.464Z,75.74
2018-09-03T18:19:53.608Z,75.73
2018-09-03T18:24:57.417Z,75.53
2018-09-03T18:30:01.151Z,75.16
2018-09-03T18:35:07.224Z,73.92
2018-09-03T18:40:12.138Z,74.63
2018-09-03T18:45:16.590Z,74.95
2018-09-03T18:50:20.961Z,74.88
2018-09-03T18:55:24.910Z,75.68
2018-09-03T19:00:29.537Z,74.98
2018-09-03T19:05:34.442Z,75.52
2018-09-03T19:10:38.527Z,75.65
2018-09-03T19:15:43.209Z,75.99
2018-09-03T19:20:46.933Z,75.85
2018-09-03T19:25:50.775Z,76.07
2018-09-03T19:30:54.519Z,75.74
2018-09-03T19:35:58.086Z,76.60
2018-09-03T19:41:01.722Z,76.14
2018-09-03T19:46:05.205Z,76.39
2018-09-03T19:51:08.862Z,77.07
2018-09-03T19:56:12.351Z,77.84
2018-09-03T20:01:16.037Z,77.99
2018-09-03T20:06:19.652Z,77.98
2018-09-03T20:11:23.219Z,77.51
2018-09-03T20:16:26.855Z,78.34
2018-09-03T20:21:30.405Z,77.73
2018-09-03T20:26:34.828Z,77.73
2018-09-03T20:31:38.356Z,77.86
2018-09-03T20:36:41.790Z,78.01
2018-09-03T20:41:45.273Z,77.97
2018-09-03T20:46:48.765Z,77.77
2018-09-03T20:51:52.440Z,78.10
2018-09-03T20:56:57.209Z,77.54
2018-09-03T21:02:00.726Z,78.11
2018-09-03T21:07:04.296Z,78.02
2018-09-03T21:12:07.799Z,78.48
2018-09-03T21:17:11.409Z,78.07
2018-09-03T21:22:15.046Z,78.20
2018-09-03T21:27:18.604Z,78.03
2018-09-03T21:32:22.161Z,78.21
2018-09-03T21:37:25.653Z,77.90
2018-09-03T21:42:29.213Z,77.81
2018-09-03T21:47:32.742Z,77.77
2018-09-03T21:52:36.282Z,78.01
2018-09-03T21:57:39.821Z,78.40
2018-09-03T22:02:43.308Z,77.93
2018-09-03T22:07:47.005Z,77.93
2018-09-03T22:12:50.612Z,78.22
2018-09-03T22:17:54.147Z,78.12
2018-09-03T22:22:57.667Z,78.03
2018-09-03T22:28:02.027Z,77.99
2018-09-03T22:33:05.903Z,77.74
2018-09-03T22:38:09.566Z,77.45
2018-09-03T22:43:13.144Z,77.01
2018-09-03T22:48:16.788Z,76.39
2018-09-03T22:53:20.291Z,76.10
2018-09-03T22:58:23.840Z,74.87
2018-09-03T23:03:27.426Z,76.15
2018-09-03T23:08:30.992Z,76.09
2018-09-03T23:13:34.542Z,75.95
2018-09-03T23:18:38.063Z,75.67
2018-09-03T23:23:42.316Z,75.39
2018-09-03T23:28:46.884Z,74.29
2018-09-03T23:33:50.363Z,74.49
2018-09-03T23:38:54.152Z,74.83
2018-09-03T23:43:57.677Z,74.39
2018-09-03T23:49:01.147Z,74.67
2018-09-03T23:54:04.626Z,75.66
2018-09-03T23:59:08.131Z,75.26
